Time,TemperatureF,DewpointF,PressureIn,WindDirection,WindDirectionDegrees,WindSpeedMPH,WindSpeedGustMPH,Humidity,HourlyPrecipIn,Conditions,Clouds,dailyrainin,SoftwareType,DateUTC
2013-07-10 00:03:00,69.3,65.0,30.06,SE,128,0.0,0.0,85,0.00,,,0.00,weatherlink.com 1.10,2013-07-10 04:03:00,
2013-07-10 00:18:00,69.3,65.0,30.05,ENE,75,0.0,1.0,85,0.00,,,0.00,weatherlink.com 1.10,2013-07-10 04:18:00,
2013-07-10 00:33:00,69.4,65.0,30.05,NE,39,0.0,1.0,85,0.00,,,0.00,weatherlink.com 1.10,2013-07-10 04:33:00,
2013-07-10 00:48:00,69.0,65.0,30.05,ESE,117,2.0,3.0,86,0.00,,,0.00,weatherlink.com 1.10,2013-07-10 04:48:00,
2013-07-10 01:03:00,68.7,65.0,30.04,SE,134,0.0,3.0,87,0.00,,,0.00,weatherlink.com 1.10,2013-07-10 05:03:00,
2013-07-10 01:18:00,68.4,65.0,30.04,East,100,1.0,2.0,88,0.00,,,0.00,weatherlink.com 1.10,2013-07-10 05:18:00,
2013-07-10 01:33:00,68.2,65.0,30.03,NNE,24,1.0,2.0,88,0.00,,,0.00,weatherlink.com 1.10,2013-07-10 05:33:00,
2013-07-10 01:48:00,68.1,65.0,30.03,ESE,105,0.0,1.0,88,0.00,,,0.00,weatherlink.com 1.10,2013-07-10 05:48:00,
2013-07-10 02:03:00,68.2,65.0,30.03,NNW,332,1.0,1.0,88,0.00,,,0.00,weatherlink.com 1.10,2013-07-10 06:03:00,
2013-07-10 02:18:00,68.1,65.0,30.02,SE,127,1.0,2.0,89,0.00,,,0.00,weatherlink.com 1.10,2013-07-10 06:18:00,
2013-07-10 02:33:00,68.1,65.0,30.02,ESE,115,0.0,2.0,89,0.00,,,0.00,weatherlink.com 1.10,2013-07-10 06:33:00,
2013-07-10 02:48:00,68.1,65.0,30.02,SSE,160,0.0,1.0,89,0.00,,,0.00,weatherlink.com 1.10,2013-07-10 06:48:00,
2013-07-10 03:03:00,68.0,65.0,30.01,WNW,283,0.0,2.0,90,0.00,,,0.00,weatherlink.com 1.10,2013-07-10 07:03:00,
2013-07-10 03:18:00,67.8,65.0,30.01,SE,127,0.0,1.0,90,0.00,,,0.00,weatherlink.com 1.10,2013-07-10 07:18:00,
2013-07-10 03:33:00,67.8,65.0,30.01,ESE,115,0.0,3.0,91,0.00,,,0.00,weatherlink.com 1.10,2013-07-10 07:33:00,
2013-07-10 03:48:00,67.7,65.0,30.00,East,97,0.0,2.0,91,0.00,,,0.00,weatherlink.com 1.10,2013-07-10 07:48:00,
2013-07-10 04:03:00,67.5,65.0,30.00,ESE,119,1.0,5.0,92,0.00,,,0.00,weatherlink.com 1.10,2013-07-10 08:03:00,
2013-07-10 04:18:00,67.3,65.0,30.00,NNW,334,0.0,4.0,92,0.00,,,0.00,weatherlink.com 1.10,2013-07-10 08:18:00,
2013-07-10 04:33:00,67.3,65.0,30.00,SSE,156,0.0,2.0,92,0.00,,,0.00,weatherlink.com 1.10,2013-07-10 08:33:00,
2013-07-10 04:48:00,67.4,65.0,29.99,ESE,102,1.0,2.0,92,0.00,,,0.00,weatherlink.com 1.10,2013-07-10 08:48:00,
2013-07-10 05:03:00,67.1,65.0,29.99,ESE,107,0.0,1.0,93,0.00,,,0.00,weatherlink.com 1.10,2013-07-10 09:03:00,
2013-07-10 05:18:00,67.2,66.0,30.00,ESE,109,0.0,0.0,94,0.00,,,0.00,weatherlink.com 1.10,2013-07-10 09:18:00,
2013-07-10 05:33:00,67.2,66.0,29.99,NNE,31,0.0,1.0,94,0.00,,,0.00,weatherlink.com 1.10,2013-07-10 09:33:00,
2013-07-10 05:48:00,67.2,66.0,29.99,ESE,122,0.0,1.0,94,0.00,,,0.00,weatherlink.com 1.10,2013-07-10 09:48:00,
2013-07-10 06:03:00,67.3,66.0,30.00,ESE,117,0.0,1.0,94,0.00,,,0.00,weatherlink.com 1.10,2013-07-10 10:03:00,
2013-07-10 06:18:00,67.4,66.0,30.00,ESE,119,0.0,0.0,94,0.00,,,0.00,weatherlink.com 1.10,2013-07-10 10:18:00,
2013-07-10 06:33:00,67.7,66.0,29.99,SE,144,0.0,1.0,94,0.00,,,0.00,weatherlink.com 1.10,2013-07-10 10:33:00,
2013-07-10 06:48:00,67.8,66.0,29.99,NW,311,3.0,3.0,94,0.00,,,0.00,weatherlink.com 1.10,2013-07-10 10:48:00,
2013-07-10 07:03:00,68.0,66.0,29.99,ENE,75,0.0,2.0,94,0.00,,,0.00,weatherlink.com 1.10,2013-07-10 11:03:00,
2013-07-10 07:19:00,68.1,66.0,29.99,NW,323,0.0,2.0,94,0.00,,,0.00,weatherlink.com 1.10,2013-07-10 11:19:00,
2013-07-10 07:34:00,68.2,67.0,29.99,ESE,110,0.0,2.0,94,0.00,,,0.00,weatherlink.com 1.10,2013-07-10 11:34:00,
2013-07-10 07:49:00,68.4,67.0,29.99,ESE,112,0.0,1.0,94,0.00,,,0.00,weatherlink.com 1.10,2013-07-10 11:49:00,
2013-07-10 08:04:00,68.4,67.0,29.99,NNW,346,0.0,1.0,95,0.00,,,0.00,weatherlink.com 1.10,2013-07-10 12:04:00,
2013-07-10 08:19:00,68.6,67.0,29.98,NNW,343,0.0,1.0,94,0.00,,,0.00,weatherlink.com 1.10,2013-07-10 12:19:00,
2013-07-10 08:34:00,68.8,67.0,29.98,NNW,331,0.0,1.0,95,0.05,,,0.05,weatherlink.com 1.10,2013-07-10 12:34:00,
2013-07-10 08:49:00,69.0,68.0,29.98,NW,304,0.0,1.0,95,0.06,,,0.06,weatherlink.com 1.10,2013-07-10 12:49:00,
2013-07-10 09:04:00,69.3,68.0,29.97,ESE,122,0.0,0.0,95,0.06,,,0.06,weatherlink.com 1.10,2013-07-10 13:04:00,
2013-07-10 09:19:00,69.6,68.0,29.96,ESE,119,0.0,1.0,95,0.06,,,0.06,weatherlink.com 1.10,2013-07-10 13:19:00,
2013-07-10 09:34:00,69.8,68.0,29.96,NNE,12,0.0,1.0,95,0.00,,,0.06,weatherlink.com 1.10,2013-07-10 13:34:00,
2013-07-10 09:49:00,70.2,69.0,29.95,ENE,65,0.0,1.0,95,0.00,,,0.06,weatherlink.com 1.10,2013-07-10 13:49:00,
2013-07-10 10:04:00,70.8,69.0,29.96,ESE,107,0.0,1.0,95,0.00,,,0.06,weatherlink.com 1.10,2013-07-10 14:04:00,
2013-07-10 10:19:00,72.0,71.0,29.95,NNW,341,1.0,1.0,95,0.00,,,0.06,weatherlink.com 1.10,2013-07-10 14:19:00,
2013-07-10 10:34:00,73.0,71.0,29.95,ESE,103,0.0,2.0,93,0.00,,,0.06,weatherlink.com 1.10,2013-07-10 14:34:00,
2013-07-10 10:49:00,74.5,72.0,29.94,West,276,0.0,2.0,92,0.00,,,0.06,weatherlink.com 1.10,2013-07-10 14:49:00,
2013-07-10 11:04:00,75.9,72.0,29.93,East,96,0.0,3.0,88,0.00,,,0.06,weatherlink.com 1.10,2013-07-10 15:04:00,
2013-07-10 11:19:00,77.3,73.0,29.93,SSE,150,0.0,4.0,85,0.00,,,0.06,weatherlink.com 1.10,2013-07-10 15:19:00,
2013-07-10 11:34:00,78.6,73.0,29.92,WNW,284,0.0,1.0,82,0.00,,,0.06,weatherlink.com 1.10,2013-07-10 15:34:00,
2013-07-10 11:49:00,79.9,74.0,29.92,SW,219,2.0,3.0,81,0.00,,,0.06,weatherlink.com 1.10,2013-07-10 15:49:00,
2013-07-10 12:04:00,82.0,73.0,29.91,WNW,284,2.0,3.0,75,0.00,,,0.06,weatherlink.com 1.10,2013-07-10 16:04:00,
2013-07-10 12:19:00,83.3,74.0,29.91,West,271,1.0,3.0,73,0.00,,,0.06,weatherlink.com 1.10,2013-07-10 16:19:00,
2013-07-10 12:34:00,83.6,74.0,29.90,SE,130,1.0,6.0,72,0.00,,,0.06,weatherlink.com 1.10,2013-07-10 16:34:00,
2013-07-10 12:49:00,83.8,73.0,29.90,ESE,117,0.0,7.0,71,0.00,,,0.06,weatherlink.com 1.10,2013-07-10 16:49:00,
2013-07-10 13:05:00,84.6,74.0,29.88,WSW,250,0.0,7.0,70,0.00,,,0.06,weatherlink.com 1.10,2013-07-10 17:05:00,
2013-07-10 13:20:00,85.9,74.0,29.88,ENE,71,7.0,7.0,68,0.00,,,0.06,weatherlink.com 1.10,2013-07-10 17:20:00,
2013-07-10 13:35:00,85.7,74.0,29.86,East,80,5.0,7.0,69,0.00,,,0.06,weatherlink.com 1.10,2013-07-10 17:35:00,
2013-07-10 13:50:00,85.5,74.0,29.86,ESE,110,3.0,5.0,69,0.00,,,0.06,weatherlink.com 1.10,2013-07-10 17:50:00,
2013-07-10 14:05:00,85.5,74.0,29.85,WSW,244,0.0,6.0,69,0.00,,,0.06,weatherlink.com 1.10,2013-07-10 18:05:00,
2013-07-10 14:20:00,86.2,74.0,29.85,WNW,295,3.0,8.0,68,0.00,,,0.06,weatherlink.com 1.10,2013-07-10 18:20:00,
2013-07-10 14:35:00,85.4,74.0,29.84,ESE,112,1.0,6.0,69,0.00,,,0.06,weatherlink.com 1.10,2013-07-10 18:35:00,
2013-07-10 14:50:00,85.1,75.0,29.84,WNW,286,1.0,8.0,71,0.00,,,0.06,weatherlink.com 1.10,2013-07-10 18:50:00,
2013-07-10 15:05:00,86.1,75.0,29.83,South,188,0.0,7.0,70,0.00,,,0.06,weatherlink.com 1.10,2013-07-10 19:05:00,
2013-07-10 15:20:00,86.7,75.0,29.82,SE,132,4.0,7.0,69,0.00,,,0.06,weatherlink.com 1.10,2013-07-10 19:20:00,
2013-07-10 15:35:00,87.0,74.0,29.82,West,261,2.0,14.0,66,0.00,,,0.06,weatherlink.com 1.10,2013-07-10 19:35:00,
2013-07-10 15:50:00,86.8,74.0,29.81,WNW,292,3.0,9.0,66,0.00,,,0.06,weatherlink.com 1.10,2013-07-10 19:50:00,
2013-07-10 16:05:00,85.0,74.0,29.81,NE,53,0.0,11.0,70,0.00,,,0.06,weatherlink.com 1.10,2013-07-10 20:05:00,
2013-07-10 16:20:00,85.0,75.0,29.81,East,90,5.0,6.0,71,0.00,,,0.06,weatherlink.com 1.10,2013-07-10 20:20:00,
2013-07-10 16:35:00,83.7,74.0,29.80,NW,319,2.0,10.0,73,0.00,,,0.06,weatherlink.com 1.10,2013-07-10 20:35:00,
2013-07-10 16:50:00,84.2,75.0,29.80,WSW,249,2.0,8.0,73,0.00,,,0.06,weatherlink.com 1.10,2013-07-10 20:50:00,
2013-07-10 17:05:00,83.1,74.0,29.79,East,82,2.0,10.0,74,0.00,,,0.06,weatherlink.com 1.10,2013-07-10 21:05:00,
2013-07-10 17:20:00,82.2,74.0,29.79,East,90,2.0,12.0,77,0.00,,,0.06,weatherlink.com 1.10,2013-07-10 21:20:00,
2013-07-10 17:35:00,81.9,74.0,29.79,SE,134,5.0,10.0,77,0.00,,,0.06,weatherlink.com 1.10,2013-07-10 21:35:00,
2013-07-10 17:50:00,81.3,74.0,29.79,ENE,63,1.0,12.0,78,0.00,,,0.06,weatherlink.com 1.10,2013-07-10 21:50:00,
2013-07-10 18:05:00,80.9,74.0,29.78,ESE,113,4.0,6.0,79,0.00,,,0.06,weatherlink.com 1.10,2013-07-10 22:05:00,
2013-07-10 18:20:00,80.2,74.0,29.77,ENE,78,1.0,8.0,80,0.00,,,0.06,weatherlink.com 1.10,2013-07-10 22:20:00,
2013-07-10 18:35:00,79.7,74.0,29.77,NE,44,2.0,7.0,82,0.00,,,0.06,weatherlink.com 1.10,2013-07-10 22:35:00,
2013-07-10 18:50:00,78.4,74.0,29.78,ESE,111,1.0,7.0,86,0.02,,,0.08,weatherlink.com 1.10,2013-07-10 22:50:00,
2013-07-10 19:05:00,77.7,74.0,29.78,West,271,0.0,4.0,88,0.03,,,0.09,weatherlink.com 1.10,2013-07-10 23:05:00,
2013-07-10 19:20:00,77.5,74.0,29.78,NNW,344,0.0,7.0,89,0.04,,,0.10,weatherlink.com 1.10,2013-07-10 23:20:00,
2013-07-10 19:35:00,77.2,74.0,29.79,WSW,237,0.0,4.0,90,0.04,,,0.10,weatherlink.com 1.10,2013-07-10 23:35:00,
2013-07-10 19:50:00,77.1,74.0,29.79,WSW,244,0.0,2.0,91,0.02,,,0.10,weatherlink.com 1.10,2013-07-10 23:50:00,
2013-07-10 20:05:00,76.8,74.0,29.79,WSW,240,0.0,2.0,91,0.01,,,0.10,weatherlink.com 1.10,2013-07-11 00:05:00,
2013-07-10 20:20:00,76.7,74.0,29.80,WNW,283,0.0,3.0,91,0.00,,,0.10,weatherlink.com 1.10,2013-07-11 00:20:00,
2013-07-10 20:35:00,76.5,74.0,29.80,WNW,303,1.0,4.0,91,0.00,,,0.10,weatherlink.com 1.10,2013-07-11 00:35:00,
2013-07-10 20:50:00,76.4,74.0,29.79,East,88,0.0,3.0,91,0.00,,,0.10,weatherlink.com 1.10,2013-07-11 00:50:00,
2013-07-10 21:05:00,76.2,74.0,29.79,West,265,1.0,3.0,92,0.00,,,0.10,weatherlink.com 1.10,2013-07-11 01:05:00,
2013-07-10 21:20:00,76.1,74.0,29.79,WSW,246,0.0,2.0,92,0.00,,,0.10,weatherlink.com 1.10,2013-07-11 01:20:00,
2013-07-10 21:35:00,75.9,74.0,29.79,ENE,65,0.0,1.0,92,0.01,,,0.11,weatherlink.com 1.10,2013-07-11 01:35:00,
2013-07-10 21:50:00,75.7,74.0,29.79,West,260,1.0,5.0,93,0.01,,,0.11,weatherlink.com 1.10,2013-07-11 01:50:00,
2013-07-10 22:05:00,75.5,73.0,29.80,ESE,118,2.0,3.0,93,0.01,,,0.11,weatherlink.com 1.10,2013-07-11 02:05:00,
2013-07-10 22:20:00,75.4,73.0,29.80,NW,314,0.0,6.0,93,0.01,,,0.11,weatherlink.com 1.10,2013-07-11 02:20:00,
2013-07-10 22:35:00,75.4,73.0,29.80,WNW,296,0.0,2.0,93,0.00,,,0.11,weatherlink.com 1.10,2013-07-11 02:35:00,
2013-07-10 22:50:00,75.4,73.0,29.80,SW,229,0.0,3.0,93,0.00,,,0.11,weatherlink.com 1.10,2013-07-11 02:50:00,
2013-07-10 23:05:00,75.4,73.0,29.79,WNW,284,0.0,6.0,93,0.00,,,0.11,weatherlink.com 1.10,2013-07-11 03:05:00,
2013-07-10 23:20:00,75.3,73.0,29.79,WSW,250,0.0,2.0,93,0.00,,,0.11,weatherlink.com 1.10,2013-07-11 03:20:00,
2013-07-10 23:35:00,75.2,73.0,29.79,West,267,0.0,3.0,93,0.00,,,0.11,weatherlink.com 1.10,2013-07-11 03:35:00,
2013-07-10 23:50:00,75.1,73.0,29.79,WSW,253,0.0,5.0,93,0.00,,,0.11,weatherlink.com 1.10,2013-07-11 03:50:00,